.
WxDataArchive / Data Records for 2013-07-25
2013-07-24 July 2013 2013-07-26

Data Records for Thursday, 25 July 2013

Time	Temp	Chill	HIndex	Humid	Dewpt	 Wind 	HiWind	WindDir	Rain 	Barom 
-----	----	-----	------	-----	-----	------	------	-------	-----	----- 
00:00	59.6	59.6	59.6	81	53.8	0	0	---	0.00	30.025 
00:05	59.5	59.5	59.5	81	53.7	0	0	---	0.00	30.025 
00:10	59.3	59.3	59.3	81	53.5	0	0	---	0.00	30.025 
00:15	59.2	59.2	59.2	82	53.7	0	0	---	0.00	30.029 
00:20	59.2	59.2	59.2	82	53.7	0	0	---	0.00	30.029 
00:25	59.0	59.0	59.0	83	53.8	0	0	---	0.00	30.029 
00:30	58.9	58.9	58.9	83	53.7	0	0	---	0.00	30.029 
00:35	58.7	58.7	58.7	83	53.5	0	0	---	0.00	30.029 
00:40	58.6	58.6	58.6	83	53.4	0	0	---	0.00	30.029 
00:45	58.4	58.4	58.4	84	53.6	0	0	---	0.00	30.030 
00:50	58.3	58.3	58.3	84	53.5	0	0	---	0.00	30.030 
00:55	58.1	58.1	58.1	84	53.3	0	0	---	0.00	30.030 
01:00	58.0	58.0	58.0	84	53.2	0	0	---	0.00	30.029 
01:05	58.0	58.0	58.0	84	53.2	0	0	---	0.00	30.029 
01:10	57.8	57.8	57.8	84	53.0	0	0	---	0.00	30.029 
01:15	57.6	57.6	57.6	84	52.8	0	0	---	0.00	30.026 
01:20	57.6	57.6	57.6	85	53.1	0	0	---	0.00	30.026 
01:25	57.5	57.5	57.5	85	53.0	0	0	---	0.00	30.026 
01:30	57.3	57.3	57.3	85	52.8	0	0	---	0.00	30.027 
01:35	57.3	57.3	57.3	85	52.8	0	0	---	0.00	30.027 
01:40	57.2	57.2	57.2	85	52.7	0	0	---	0.00	30.027 
01:45	57.2	57.2	57.2	86	53.0	0	0	---	0.00	30.023 
01:50	57.0	57.0	57.0	86	52.9	0	0	---	0.00	30.023 
01:55	57.0	57.0	57.0	86	52.9	0	0	---	0.00	30.023 
02:00	56.9	56.9	56.9	86	52.8	0	0	---	0.00	30.024 
02:05	56.7	56.7	56.7	86	52.6	0	0	---	0.00	30.024 
02:10	56.6	56.6	56.6	86	52.5	0	0	---	0.00	30.024 
02:15	56.5	56.5	56.5	87	52.7	0	0	---	0.00	30.023 
02:20	56.5	56.5	56.5	87	52.7	0	0	---	0.00	30.023 
02:25	56.3	56.3	56.3	87	52.5	0	0	---	0.00	30.023 
02:30	56.3	56.3	56.3	87	52.5	0	0	---	0.00	30.027 
02:35	56.2	56.2	56.2	88	52.7	0	0	---	0.00	30.027 
02:40	56.2	56.2	56.2	88	52.7	0	0	---	0.00	30.027 
02:45	56.0	56.0	56.0	88	52.5	0	0	---	0.00	30.026 
02:50	55.9	55.9	55.9	88	52.4	0	0	---	0.00	30.026 
02:55	55.7	55.7	55.7	88	52.2	0	0	---	0.00	30.026 
03:00	55.6	55.6	55.6	89	52.4	0	0	---	0.00	30.028 
03:05	55.6	55.6	55.6	89	52.4	0	0	---	0.00	30.028 
03:10	55.4	55.4	55.4	89	52.2	0	0	---	0.00	30.028 
03:15	55.3	55.3	55.3	89	52.1	0	0	---	0.00	30.033 
03:20	55.3	55.3	55.3	90	52.4	0	0	---	0.00	30.033 
03:25	55.3	55.3	55.3	90	52.4	0	0	---	0.00	30.033 
03:30	55.1	55.1	55.1	90	52.2	0	0	---	0.00	30.034 
03:35	55.0	55.0	55.0	90	52.1	0	0	---	0.00	30.034 
03:40	55.0	55.0	55.0	90	52.1	0	0	---	0.00	30.034 
03:45	54.8	54.8	54.8	91	52.2	0	0	---	0.00	30.034 
03:50	54.8	54.8	54.8	91	52.2	0	0	---	0.00	30.034 
03:55	54.8	54.8	54.8	91	52.2	0	0	---	0.00	30.034 
04:00	54.7	54.7	54.7	91	52.1	0	0	---	0.00	30.031 
04:05	54.5	54.5	54.5	91	51.9	0	0	---	0.00	30.031 
04:10	54.5	54.5	54.5	91	51.9	0	0	---	0.00	30.031 
04:15	54.4	54.4	54.4	91	51.8	0	0	---	0.00	30.038 
04:20	54.4	54.4	54.4	92	52.1	0	0	---	0.00	30.038 
04:25	54.2	54.2	54.2	92	51.9	0	0	---	0.00	30.038 
04:30	54.1	54.1	54.1	92	51.8	0	0	---	0.00	30.042 
04:35	54.1	54.1	54.1	92	51.8	0	0	---	0.00	30.042 
04:40	53.9	53.9	53.9	92	51.6	0	0	---	0.00	30.042 
04:45	53.8	53.8	53.8	92	51.5	0	0	---	0.00	30.044 
04:50	53.8	53.8	53.8	92	51.5	0	0	---	0.00	30.044 
04:55	53.6	53.6	53.6	92	51.3	0	0	---	0.00	30.044 
05:00	53.6	53.6	53.6	92	51.3	0	0	---	0.00	30.046 
05:05	53.5	53.5	53.5	92	51.2	0	0	---	0.00	30.046 
05:10	53.5	53.5	53.5	92	51.2	0	0	---	0.00	30.046 
05:15	53.5	53.5	53.5	92	51.2	0	0	---	0.00	30.048 
05:20	53.3	53.3	53.3	92	51.0	0	0	---	0.00	30.048 
05:25	53.3	53.3	53.3	92	51.0	0	0	---	0.00	30.048 
05:30	53.2	53.2	53.2	93	51.2	0	0	---	0.00	30.048 
05:35	53.2	53.2	53.2	93	51.2	0	0	---	0.00	30.048 
05:40	53.2	53.2	53.2	93	51.2	0	0	---	0.00	30.048 
05:45	53.3	53.3	53.3	93	51.3	0	0	---	0.00	30.055 
05:50	53.2	53.2	53.2	93	51.2	0	0	---	0.00	30.055 
05:55	53.2	53.2	53.2	93	51.2	0	0	---	0.00	30.055 
06:00	53.2	53.2	53.2	93	51.2	0	0	---	0.00	30.059 
06:05	53.1	53.1	53.1	93	51.1	0	0	---	0.00	30.059 
06:10	53.1	53.1	53.1	93	51.1	0	0	---	0.00	30.059 
06:15	53.1	53.1	53.1	93	51.1	0	0	---	0.00	30.061 
06:20	53.1	53.1	53.1	93	51.1	0	0	---	0.00	30.061 
06:25	52.9	52.9	52.9	93	50.9	0	0	---	0.00	30.061 
06:30	52.9	52.9	52.9	93	50.9	0	0	---	0.00	30.064 
06:35	52.9	52.9	52.9	93	50.9	0	0	---	0.00	30.064 
06:40	52.8	52.8	52.8	93	50.8	0	0	---	0.00	30.064 
06:45	52.8	52.8	52.8	94	51.1	0	0	---	0.00	30.069 
06:50	52.8	52.8	52.8	94	51.1	0	0	---	0.00	30.069 
06:55	52.9	52.9	52.9	94	51.2	0	0	---	0.00	30.069 
07:00	52.9	52.9	52.9	94	51.2	0	0	---	0.00	30.071 
07:05	53.1	53.1	53.1	94	51.4	0	0	---	0.00	30.071 
07:10	53.2	53.2	53.2	94	51.5	0	0	---	0.00	30.071 
07:15	53.3	53.3	53.3	94	51.6	0	0	---	0.00	30.074 
07:20	53.6	53.6	53.6	94	51.9	0	0	---	0.00	30.074 
07:25	53.8	53.8	53.8	94	52.1	0	0	---	0.00	30.074 
07:30	54.1	54.1	54.1	94	52.4	0	0	---	0.00	30.070 
07:35	54.5	54.5	54.5	95	53.1	0	0	---	0.00	30.070 
07:40	55.0	55.0	55.0	95	53.6	0	0	---	0.00	30.070 
07:45	55.6	55.6	55.6	95	54.2	0	0	---	0.00	30.078 
07:50	56.0	56.0	56.0	95	54.6	0	0	---	0.00	30.078 
07:55	56.7	56.7	56.7	95	55.3	0	0	---	0.00	30.078 
08:00	57.5	57.5	57.5	94	55.8	0	0	---	0.00	30.077 
08:05	58.4	58.4	58.4	94	56.7	0	2	90	0.00	30.077 
08:10	59.5	59.5	59.5	92	57.2	0	2	90	0.00	30.077 
08:15	60.1	60.1	60.1	87	56.2	1	3	90	0.00	30.069 
08:20	61.0	61.0	61.0	84	56.1	0	1	90	0.00	30.069 
08:25	61.8	61.8	61.8	80	55.6	1	3	90	0.00	30.069 
08:30	62.4	62.4	62.4	78	55.4	0	2	90	0.00	30.070 
08:35	63.2	63.2	63.2	76	55.5	0	2	90	0.00	30.070 
08:40	63.9	63.9	63.9	75	55.8	0	2	90	0.00	30.070 
08:45	64.7	64.7	64.7	73	55.8	0	1	90	0.00	30.068 
08:50	65.3	65.3	65.3	71	55.6	0	1	90	0.00	30.068 
08:55	65.6	65.6	65.6	72	56.3	0	1	90	0.00	30.068 
09:00	66.1	66.1	66.1	70	56.0	0	3	90	0.00	30.073 
09:05	66.3	66.3	66.3	69	55.8	0	2	90	0.00	30.073 
09:10	66.4	66.4	66.4	68	55.5	0	3	90	0.00	30.073 
09:15	66.8	66.8	66.8	68	55.9	0	2	90	0.00	30.079 
09:20	67.6	67.6	67.6	66	55.8	0	1	90	0.00	30.079 
09:25	68.3	68.3	68.3	64	55.6	0	1	90	0.00	30.079 
09:30	69.1	69.1	69.1	63	56.0	0	1	90	0.00	30.073 
09:35	69.1	69.1	69.1	60	54.6	1	3	90	0.00	30.073 
09:40	69.1	69.1	69.1	60	54.6	1	3	45	0.00	30.073 
09:45	68.9	68.9	68.9	60	54.4	1	3	45	0.00	30.074 
09:50	68.9	68.9	68.9	60	54.4	0	3	45	0.00	30.074 
09:55	69.1	69.1	69.1	60	54.6	0	2	45	0.00	30.074 
10:00	69.4	69.4	69.4	60	54.9	1	4	45	0.00	30.082 
10:05	69.1	69.1	69.1	61	55.1	1	4	45	0.00	30.082 
10:10	69.4	69.4	69.4	61	55.4	0	2	45	0.00	30.082 
10:15	70.1	70.1	70.1	59	55.1	0	1	45	0.00	30.086 
10:20	70.6	70.6	70.6	56	54.1	1	3	112	0.00	30.086 
10:25	71.3	71.3	71.3	55	54.3	0	2	112	0.00	30.086 
10:30	71.8	71.8	71.8	55	54.7	0	1	112	0.00	30.087 
10:35	71.8	71.8	71.8	58	56.2	0	1	112	0.00	30.087 
10:40	72.3	72.3	72.3	56	55.7	0	1	112	0.00	30.087 
10:45	72.3	72.3	72.3	52	53.7	0	1	112	0.00	30.088 
10:50	72.3	72.3	72.3	51	53.1	0	3	112	0.00	30.088 
10:55	72.5	72.5	72.5	52	53.9	0	2	112	0.00	30.088 
11:00	72.1	72.1	72.1	53	54.0	0	1	112	0.00	30.087 
11:05	72.1	72.1	72.1	53	54.0	0	1	112	0.00	30.087 
11:10	72.3	72.3	72.3	51	53.1	1	3	112	0.00	30.087 
11:15	71.5	71.5	71.5	53	53.5	1	2	112	0.00	30.093 
11:20	71.3	71.3	71.3	56	54.8	0	2	112	0.00	30.093 
11:25	72.1	72.1	72.1	56	55.5	0	1	112	0.00	30.093 
11:30	72.8	72.8	72.8	51	53.6	0	1	112	0.00	30.092 
11:35	71.8	71.8	71.8	52	53.2	0	2	112	0.00	30.092 
11:40	70.9	70.9	70.9	53	52.9	0	1	112	0.00	30.092 
11:45	70.3	70.3	70.3	54	52.9	0	1	112	0.00	30.100 
11:50	69.9	69.9	69.9	55	53.0	0	2	112	0.00	30.100 
11:55	69.8	69.8	69.8	54	52.4	0	1	112	0.00	30.100 
12:00	70.1	70.1	70.1	54	52.7	0	1	112	0.00	30.091 
12:05	70.4	70.4	70.4	56	53.9	0	1	112	0.00	30.091 
12:10	70.4	70.4	70.4	56	53.9	0	1	112	0.00	30.091 
12:15	70.3	70.3	70.3	55	53.4	0	2	112	0.00	30.098 
12:20	70.4	70.4	70.4	55	53.4	0	1	112	0.00	30.098 
12:25	71.3	71.3	71.3	55	54.3	0	2	112	0.00	30.098 
12:30	72.3	72.3	72.3	51	53.1	0	2	112	0.00	30.089 
12:35	73.2	73.2	73.2	52	54.5	0	2	112	0.00	30.089 
12:40	73.0	73.0	73.0	50	53.2	1	5	112	0.00	30.089 
12:45	71.8	71.8	71.8	50	52.1	1	2	112	0.00	30.094 
12:50	71.3	71.3	71.3	52	52.8	0	2	112	0.00	30.094 
12:55	71.3	71.3	71.3	52	52.8	0	2	112	0.00	30.094 
13:00	71.6	71.6	71.6	53	53.5	0	1	112	0.00	30.089 
13:05	71.5	71.5	71.5	51	52.4	0	2	112	0.00	30.089 
13:10	71.6	71.6	71.6	53	53.5	0	2	112	0.00	30.089 
13:15	72.5	72.5	72.5	54	54.9	0	2	112	0.00	30.086 
13:20	73.5	73.5	73.5	54	55.8	1	3	180	0.00	30.086 
13:25	74.2	74.2	74.2	49	53.8	1	4	135	0.00	30.086 
13:30	74.2	74.2	74.2	49	53.8	2	5	90	0.00	30.086 
13:35	73.9	73.9	73.9	49	53.5	1	4	338	0.00	30.086 
13:40	74.4	74.4	74.4	48	53.4	0	2	338	0.00	30.086 
13:45	74.6	74.6	74.6	48	53.6	0	2	338	0.00	30.083 
13:50	75.1	75.1	77.6	44	51.7	1	3	112	0.00	30.083 
13:55	75.8	75.8	78.0	48	54.7	0	2	112	0.00	30.083 
14:00	76.1	76.1	78.0	44	52.6	0	3	135	0.00	30.086 
14:05	76.3	76.3	78.2	49	55.7	0	2	135	0.00	30.086 
14:10	75.8	75.8	77.9	46	53.5	2	5	90	0.00	30.086 
14:15	74.9	74.9	74.9	48	53.9	0	2	90	0.00	30.089 
14:20	74.4	74.4	74.4	46	52.3	1	3	90	0.00	30.089 
14:25	73.9	73.9	73.9	47	52.4	0	2	90	0.00	30.089 
14:30	73.7	73.7	73.7	45	51.0	0	2	90	0.00	30.089 
14:35	74.2	74.2	74.2	45	51.5	1	3	90	0.00	30.089 
14:40	75.3	75.3	77.7	48	54.2	1	3	315	0.00	30.089 
14:45	75.4	75.4	77.8	46	53.2	1	4	0	0.00	30.089 
14:50	75.3	75.3	77.7	46	53.1	0	3	112	0.00	30.089 
14:55	74.2	74.2	74.2	43	50.2	1	3	292	0.00	30.089 
15:00	73.7	73.7	73.7	44	50.4	0	1	292	0.00	30.091 
15:05	73.5	73.5	73.5	45	50.8	1	3	292	0.00	30.091 
15:10	73.9	73.9	73.9	52	55.1	0	1	90	0.00	30.091 
15:15	74.2	74.2	74.2	44	50.9	0	1	90	0.00	30.097 
15:20	74.0	74.0	74.0	45	51.3	0	2	90	0.00	30.097 
15:25	73.5	73.5	73.5	46	51.4	0	1	90	0.00	30.097 
15:30	73.2	73.2	73.2	46	51.2	0	2	90	0.00	30.093 
15:35	73.9	73.9	73.9	48	53.0	0	2	90	0.00	30.093 
15:40	75.1	75.1	77.7	47	53.5	0	3	90	0.00	30.093 
15:45	76.3	76.3	78.1	44	52.8	0	1	90	0.00	30.089 
15:50	77.4	77.4	78.5	41	51.8	0	2	90	0.00	30.089 
15:55	77.7	77.7	78.6	41	52.1	1	3	90	0.00	30.089 
16:00	76.1	76.1	78.0	45	53.2	1	4	315	0.00	30.089 
16:05	75.3	75.3	77.7	46	53.1	0	2	315	0.00	30.089 
16:10	74.7	74.7	74.7	48	53.7	0	1	315	0.00	30.089 
16:15	74.6	74.6	74.6	48	53.6	0	3	112	0.00	30.083 
16:20	74.7	74.7	74.7	48	53.7	1	4	112	0.00	30.083 
16:25	75.6	75.6	77.8	44	52.1	1	4	112	0.00	30.083 
16:30	76.1	76.1	78.0	43	52.0	1	4	90	0.00	30.078 
16:35	76.5	76.5	78.2	44	52.9	0	3	112	0.00	30.078 
16:40	76.1	76.1	78.0	44	52.6	0	2	112	0.00	30.078 
16:45	75.8	75.8	77.9	44	52.3	0	1	112	0.00	30.073 
16:50	75.8	75.8	77.9	46	53.5	0	1	112	0.00	30.073 
16:55	76.1	76.1	78.0	45	53.2	0	3	112	0.00	30.073 
17:00	76.7	76.7	78.3	44	53.1	0	2	112	0.00	30.072 
17:05	77.0	77.0	78.4	43	52.8	1	4	270	0.00	30.072 
17:10	77.4	77.4	78.5	41	51.8	0	1	270	0.00	30.072 
17:15	76.8	76.8	78.2	42	51.9	0	2	270	0.00	30.072 
17:20	76.7	76.7	78.3	44	53.1	0	1	270	0.00	30.072 
17:25	77.0	77.0	78.4	43	52.8	1	4	270	0.00	30.072 
17:30	77.6	77.6	78.7	43	53.3	0	2	90	0.00	30.068 
17:35	77.9	77.9	78.7	41	52.3	0	1	90	0.00	30.068 
17:40	77.7	77.7	78.5	39	50.7	1	3	68	0.00	30.068 
17:45	77.2	77.2	78.3	39	50.3	1	3	45	0.00	30.063 
17:50	77.2	77.2	78.3	40	51.0	1	2	45	0.00	30.063 
17:55	76.7	76.7	78.1	41	51.2	1	2	45	0.00	30.063 
18:00	76.0	76.0	77.8	40	49.9	0	2	45	0.00	30.065 
18:05	75.8	75.8	77.8	42	51.1	0	1	45	0.00	30.065 
18:10	75.4	75.4	77.7	43	51.3	0	2	45	0.00	30.065 
18:15	75.4	75.4	77.7	42	50.7	0	1	45	0.00	30.061 
18:20	75.3	75.3	77.6	42	50.6	1	2	45	0.00	30.061 
18:25	75.4	75.4	77.7	44	52.0	1	3	45	0.00	30.061 
18:30	75.6	75.6	77.8	43	51.5	0	1	45	0.00	30.060 
18:35	75.8	75.8	77.8	43	51.7	0	1	45	0.00	30.060 
18:40	75.8	75.8	77.8	42	51.1	0	2	45	0.00	30.060 
18:45	75.8	75.8	77.9	45	52.9	1	4	45	0.00	30.059 
18:50	75.8	75.8	77.9	44	52.3	1	2	45	0.00	30.059 
18:55	75.6	75.6	77.8	44	52.1	1	3	45	0.00	30.059 
19:00	75.6	75.6	77.8	45	52.7	0	2	45	0.00	30.060 
19:05	75.6	75.6	77.8	46	53.3	0	2	45	0.00	30.060 
19:10	75.8	75.8	77.9	46	53.5	0	2	45	0.00	30.060 
19:15	75.8	75.8	77.9	45	52.9	0	2	45	0.00	30.060 
19:20	75.4	75.4	77.7	44	52.0	1	3	45	0.00	30.060 
19:25	75.3	75.3	77.7	45	52.5	0	3	45	0.00	30.060 
19:30	75.1	75.1	77.6	45	52.3	0	1	45	0.00	30.068 
19:35	74.9	74.9	74.9	46	52.7	0	1	45	0.00	30.068 
19:40	74.7	74.7	74.7	46	52.5	0	0	---	0.00	30.068 
19:45	74.6	74.6	74.6	47	53.0	0	0	---	0.00	30.065 
19:50	74.4	74.4	74.4	47	52.8	0	0	---	0.00	30.065 
19:55	74.4	74.4	74.4	47	52.8	0	0	---	0.00	30.065 
20:00	74.4	74.4	74.4	47	52.8	0	0	---	0.00	30.069 
20:05	74.2	74.2	74.2	46	52.1	0	1	45	0.00	30.069 
20:10	74.0	74.0	74.0	48	53.0	0	1	45	0.00	30.069 
20:15	73.9	73.9	73.9	48	53.0	0	0	---	0.00	30.065 
20:20	73.7	73.7	73.7	48	52.8	0	0	---	0.00	30.065 
20:25	73.5	73.5	73.5	50	53.7	0	0	---	0.00	30.065 
20:30	73.2	73.2	73.2	51	54.0	0	0	---	0.00	30.066 
20:35	73.0	73.0	73.0	51	53.8	0	0	---	0.00	30.066 
20:40	72.8	72.8	72.8	52	54.1	0	0	---	0.00	30.066 
20:45	72.5	72.5	72.5	53	54.4	0	0	---	0.00	30.061 
20:50	72.0	72.0	72.0	54	54.4	0	0	---	0.00	30.061 
20:55	71.8	71.8	71.8	54	54.2	0	0	---	0.00	30.061 
21:00	71.5	71.5	71.5	54	54.0	0	0	---	0.00	30.058 
21:05	71.3	71.3	71.3	55	54.3	0	0	---	0.00	30.058 
21:10	70.9	70.9	70.9	56	54.4	0	0	---	0.00	30.058 
21:15	70.8	70.8	70.8	58	55.3	0	0	---	0.00	30.057 
21:20	70.6	70.6	70.6	58	55.1	0	0	---	0.00	30.057 
21:25	70.3	70.3	70.3	60	55.7	0	0	---	0.00	30.057 
21:30	69.9	69.9	69.9	61	55.8	0	0	---	0.00	30.060 
21:35	69.4	69.4	69.4	62	55.8	0	0	---	0.00	30.060 
21:40	68.9	68.9	68.9	62	55.3	0	0	---	0.00	30.060 
21:45	68.4	68.4	68.4	62	54.9	0	0	---	0.00	30.063 
21:50	68.3	68.3	68.3	63	55.2	0	0	---	0.00	30.063 
21:55	68.1	68.1	68.1	65	55.9	0	0	---	0.00	30.063 
22:00	67.9	67.9	67.9	65	55.7	0	0	---	0.00	30.068 
22:05	67.6	67.6	67.6	66	55.8	0	0	---	0.00	30.068 
22:10	67.4	67.4	67.4	68	56.5	0	0	---	0.00	30.068 
22:15	67.1	67.1	67.1	67	55.8	0	0	---	0.00	30.066 
22:20	66.8	66.8	66.8	68	55.9	0	0	---	0.00	30.066 
22:25	66.6	66.6	66.6	68	55.7	0	0	---	0.00	30.066 
22:30	66.3	66.3	66.3	69	55.8	0	0	---	0.00	30.067 
22:35	66.1	66.1	66.1	69	55.6	0	0	---	0.00	30.067 
22:40	66.0	66.0	66.0	69	55.5	0	0	---	0.00	30.067 
22:45	65.8	65.8	65.8	71	56.1	0	0	---	0.00	30.067 
22:50	65.6	65.6	65.6	73	56.7	0	0	---	0.00	30.067 
22:55	65.3	65.3	65.3	73	56.4	0	0	---	0.00	30.067 
23:00	65.2	65.2	65.2	74	56.7	0	0	---	0.00	30.068 
23:05	65.0	65.0	65.0	73	56.1	0	0	---	0.00	30.068 
23:10	64.8	64.8	64.8	74	56.3	0	0	---	0.00	30.068 
23:15	64.7	64.7	64.7	74	56.2	0	0	---	0.00	30.071 
23:20	64.7	64.7	64.7	75	56.6	0	0	---	0.00	30.071 
23:25	64.7	64.7	64.7	75	56.6	0	0	---	0.00	30.071 
23:30	64.7	64.7	64.7	75	56.6	0	0	---	0.00	30.070 
23:35	64.7	64.7	64.7	76	57.0	0	0	---	0.00	30.070 
23:40	64.7	64.7	64.7	76	57.0	0	0	---	0.00	30.070 
23:45	64.7	64.7	64.7	76	57.0	0	0	---	0.00	30.081 
23:50	64.5	64.5	64.5	75	56.4	0	0	---	0.00	30.081 
23:55	64.5	64.5	64.5	76	56.8	0	0	---	0.00	30.081 

CoCoRaHS
IN-AL-39
A2 Web Hosting
Creative Commons License
GoDaddy
search engine by freefind advanced

loaded 2018-11-13 21:21:27 • last modified 2010-11-18 10:43:29
Privacy PolicyDisclaimer
• wx.awcolley.com is powered by PmWiki v.2002016 •
• all content (unless otherwise noted) © 2018 A W Colley